Time;durP1;ratioP1;P1;durP2;ratioP2;P2;SDS_P1;SDS_P2;PMS_P1;PMS_P2;Temp;Humidity;BMP_temperature;BMP_pressure;BME280_temperature;BME280_humidity;BME280_pressure;Samples;Min_cycle;Max_cycle;Signal;HPM_P1;HPM_P2
2021/12/23 00:01:41;;;;;;;40.45;20.33;;;-0.80;99.90;;;;;;5038111;28;20024;-54
2021/12/23 00:04:09;;;;;;;40.72;18.25;;;-0.70;99.90;;;;;;5055524;28;20366;-53
2021/12/23 00:06:35;;;;;;;41.60;19.58;;;-0.70;99.90;;;;;;5055798;28;20480;-54
2021/12/23 00:09:03;;;;;;;42.22;17.95;;;-0.70;99.90;;;;;;5056078;28;20045;-55
2021/12/23 00:11:29;;;;;;;39.38;18.58;;;-0.70;99.90;;;;;;5053468;28;20029;-51
2021/12/23 00:14:06;;;;;;;37.88;18.17;;;-0.70;99.90;;;;;;5053717;28;20378;-55
2021/12/23 00:16:44;;;;;;;40.70;18.70;;;-0.70;99.90;;;;;;5053446;28;20108;-54
2021/12/23 00:19:36;;;;;;;38.85;18.23;;;-0.70;99.90;;;;;;5053811;28;20402;-54
2021/12/23 00:24:48;;;;;;;39.60;17.67;;;-0.70;99.90;;;;;;5053809;28;20032;-50
2021/12/23 00:27:14;;;;;;;39.05;19.25;;;-0.70;99.90;;;;;;5053975;28;20025;-52
2021/12/23 00:29:40;;;;;;;42.00;18.27;;;-0.70;99.90;;;;;;5054039;28;20025;-49
2021/12/23 00:32:08;;;;;;;39.22;17.85;;;-0.70;99.90;;;;;;5053384;28;20036;-49
2021/12/23 00:34:37;;;;;;;39.22;18.05;;;-0.80;99.90;;;;;;5053374;28;20029;-53
2021/12/23 00:37:06;;;;;;;37.17;18.25;;;-0.80;99.90;;;;;;5053040;28;20028;-50
2021/12/23 00:39:32;;;;;;;40.95;19.15;;;-0.80;99.90;;;;;;5053016;28;20127;-52
2021/12/23 00:42:07;;;;;;;41.78;19.23;;;-0.80;99.90;;;;;;5053483;28;20366;-52
2021/12/23 00:44:35;;;;;;;38.92;19.02;;;-0.80;99.90;;;;;;5052918;28;20036;-50
2021/12/23 00:47:00;;;;;;;38.88;18.23;;;-0.80;99.90;;;;;;5052692;28;20021;-49
2021/12/23 00:49:26;;;;;;;38.83;18.27;;;-0.80;99.90;;;;;;5034842;28;20067;-49
2021/12/23 00:51:53;;;;;;;33.92;18.20;;;-0.70;99.90;;;;;;5052484;28;20044;-49
2021/12/23 00:54:19;;;;;;;40.72;18.75;;;-0.70;99.90;;;;;;5052737;28;20370;-50
2021/12/23 00:56:48;;;;;;;38.75;19.15;;;-0.70;99.90;;;;;;5052656;28;20036;-51
2021/12/23 00:59:14;;;;;;;40.63;18.90;;;-0.70;99.90;;;;;;5052619;28;20032;-51
2021/12/23 01:01:40;;;;;;;33.55;16.63;;;-0.70;99.90;;;;;;5052677;28;20036;-50
2021/12/23 01:04:05;;;;;;;34.22;18.05;;;-0.70;99.90;;;;;;5052967;28;20453;-50
2021/12/23 01:06:31;;;;;;;41.10;19.52;;;-0.70;99.90;;;;;;5052150;28;20127;-50
2021/12/23 01:08:56;;;;;;;33.45;17.75;;;-0.70;99.90;;;;;;5052683;28;20036;-51
2021/12/23 01:11:24;;;;;;;39.63;19.50;;;-0.60;99.90;;;;;;5052989;28;20103;-50
2021/12/23 01:14:02;;;;;;;42.90;19.40;;;-0.60;99.90;;;;;;5052664;28;20033;-52
2021/12/23 01:19:24;;;;;;;36.20;17.95;;;-0.60;99.90;;;;;;4981621;28;20174;-51
2021/12/23 01:21:50;;;;;;;31.75;16.77;;;-0.60;99.90;;;;;;5051905;28;20440;-49
2021/12/23 01:24:15;;;;;;;41.50;19.85;;;-0.60;99.90;;;;;;5052607;28;20029;-49
2021/12/23 01:26:42;;;;;;;41.47;19.50;;;-0.60;99.90;;;;;;5052462;28;20343;-51
2021/12/23 01:29:08;;;;;;;36.40;18.30;;;-0.60;99.90;;;;;;5053216;28;20017;-54
2021/12/23 01:31:37;;;;;;;35.45;18.55;;;-0.60;99.90;;;;;;5052557;28;20101;-49
2021/12/23 01:34:03;;;;;;;38.17;18.33;;;-0.60;99.90;;;;;;5034398;28;20032;-51
2021/12/23 01:36:29;;;;;;;36.92;18.33;;;-0.50;99.90;;;;;;5052077;28;20338;-49
2021/12/23 01:38:55;;;;;;;38.67;18.92;;;-0.50;99.90;;;;;;5052867;28;20374;-50
2021/12/23 01:41:23;;;;;;;38.95;18.95;;;-0.50;99.90;;;;;;5052174;28;20028;-50
2021/12/23 01:43:49;;;;;;;34.05;17.60;;;-0.50;99.90;;;;;;5052695;28;20113;-50
2021/12/23 01:46:15;;;;;;;36.53;18.63;;;-0.50;99.90;;;;;;5052100;28;20032;-50
2021/12/23 01:48:41;;;;;;;39.10;18.67;;;-0.50;99.90;;;;;;5052273;28;20029;-50
2021/12/23 01:51:07;;;;;;;41.72;19.48;;;-0.50;99.90;;;;;;5051956;28;20025;-50
2021/12/23 01:53:33;;;;;;;37.78;17.98;;;-0.50;99.90;;;;;;5052361;28;20128;-50
2021/12/23 01:55:59;;;;;;;36.67;18.00;;;-0.50;99.90;;;;;;5051994;28;20092;-49
2021/12/23 01:58:25;;;;;;;37.92;18.58;;;-0.40;99.90;;;;;;5051812;28;20055;-50
2021/12/23 02:00:51;;;;;;;42.22;18.98;;;-0.40;99.90;;;;;;5052189;28;20025;-50
2021/12/23 02:03:18;;;;;;;35.00;17.25;;;-0.40;99.90;;;;;;5033863;28;20025;-51
2021/12/23 02:05:44;;;;;;;35.00;17.70;;;-0.40;99.90;;;;;;5051962;28;20013;-50
2021/12/23 02:08:10;;;;;;;36.60;18.73;;;-0.40;99.90;;;;;;5052477;28;20035;-51
2021/12/23 02:10:36;;;;;;;40.72;18.60;;;-0.40;99.90;;;;;;5052147;28;20025;-50
2021/12/23 02:13:02;;;;;;;38.88;19.08;;;-0.40;99.90;;;;;;5052089;28;20018;-51
2021/12/23 02:15:28;;;;;;;37.15;19.10;;;-0.50;99.90;;;;;;5051811;28;20057;-50
2021/12/23 02:17:54;;;;;;;41.42;19.65;;;-0.50;99.90;;;;;;5051980;28;20059;-50
2021/12/23 02:20:32;;;;;;;39.78;19.50;;;-0.40;99.90;;;;;;5051889;28;20025;-50
2021/12/23 02:22:57;;;;;;;35.15;18.15;;;-0.40;99.90;;;;;;5051763;28;20067;-52
2021/12/23 02:25:23;;;;;;;40.75;18.45;;;-0.40;99.90;;;;;;5051751;28;20499;-51
2021/12/23 02:27:49;;;;;;;42.35;19.10;;;-0.40;99.90;;;;;;5052000;28;20025;-48
2021/12/23 02:30:19;;;;;;;36.75;18.48;;;-0.40;99.90;;;;;;5051482;28;20041;-53
2021/12/23 02:32:46;;;;;;;39.20;18.90;;;-0.30;99.90;;;;;;5052441;28;20025;-50
2021/12/23 02:35:15;;;;;;;35.72;18.58;;;-0.40;99.90;;;;;;5055532;28;20036;-48
2021/12/23 02:37:41;;;;;;;40.22;18.83;;;-0.30;99.90;;;;;;5055142;28;20025;-49
2021/12/23 02:40:09;;;;;;;37.63;18.92;;;-0.30;99.90;;;;;;5055050;28;20032;-48
2021/12/23 02:42:35;;;;;;;39.83;18.75;;;-0.30;99.90;;;;;;5055053;28;20500;-49
2021/12/23 02:45:04;;;;;;;38.08;19.50;;;-0.30;99.90;;;;;;5055000;28;20039;-50
2021/12/23 02:47:31;;;;;;;40.25;19.10;;;-0.30;99.90;;;;;;5055118;28;20017;-49
2021/12/23 02:49:57;;;;;;;39.42;18.73;;;-0.30;99.90;;;;;;5054979;28;20021;-50
2021/12/23 02:52:22;;;;;;;37.35;18.58;;;-0.30;99.90;;;;;;5054906;28;20079;-48
2021/12/23 02:54:57;;;;;;;41.85;20.20;;;-0.30;99.90;;;;;;5055457;28;20048;-53
2021/12/23 02:57:24;;;;;;;38.60;19.23;;;-0.30;99.90;;;;;;5055228;28;20044;-49
2021/12/23 02:59:50;;;;;;;39.95;19.08;;;-0.30;99.90;;;;;;5055261;28;20029;-47
2021/12/23 03:02:15;;;;;;;41.53;18.63;;;-0.30;99.90;;;;;;5054995;28;20083;-51
2021/12/23 03:04:41;;;;;;;38.97;19.92;;;-0.30;99.90;;;;;;5054835;28;20033;-46
2021/12/23 03:07:07;;;;;;;40.60;19.77;;;-0.20;99.90;;;;;;5055163;28;20494;-50
2021/12/23 03:09:32;;;;;;;39.50;19.58;;;-0.30;99.90;;;;;;5054813;28;20151;-49
2021/12/23 03:11:58;;;;;;;37.88;19.17;;;-0.20;99.90;;;;;;5054810;28;20150;-53
2021/12/23 03:14:23;;;;;;;38.80;18.25;;;-0.20;99.90;;;;;;5054981;28;20056;-50
2021/12/23 03:16:49;;;;;;;36.40;18.17;;;-0.20;99.90;;;;;;5054842;28;20040;-48
2021/12/23 03:19:15;;;;;;;37.95;18.33;;;-0.20;99.90;;;;;;5054591;28;20036;-50
2021/12/23 03:21:40;;;;;;;41.08;20.00;;;-0.20;99.90;;;;;;5054577;28;20023;-48
2021/12/23 03:24:06;;;;;;;38.22;18.95;;;-0.20;99.90;;;;;;5054755;28;20029;-48
2021/12/23 03:26:32;;;;;;;41.38;20.60;;;-0.20;99.90;;;;;;5054574;28;20025;-51
2021/12/23 03:28:57;;;;;;;41.15;19.75;;;-0.30;99.90;;;;;;5054444;28;20021;-52
2021/12/23 03:31:23;;;;;;;43.28;20.45;;;-0.20;99.90;;;;;;5054420;28;20032;-50
2021/12/23 03:33:49;;;;;;;39.72;19.60;;;-0.20;99.90;;;;;;5054731;28;20028;-51
2021/12/23 03:36:14;;;;;;;39.60;19.42;;;-0.20;99.90;;;;;;5054248;28;20044;-53
2021/12/23 03:38:40;;;;;;;37.40;18.73;;;-0.20;99.90;;;;;;5036303;28;20397;-54
2021/12/23 03:41:05;;;;;;;41.20;18.83;;;-0.10;99.90;;;;;;5054236;28;20029;-52
2021/12/23 03:43:31;;;;;;;43.90;21.42;;;-0.20;99.90;;;;;;5054604;28;20032;-54
2021/12/23 03:45:57;;;;;;;39.60;21.08;;;-0.20;99.90;;;;;;5053588;28;20025;-54
2021/12/23 03:48:23;;;;;;;38.80;19.88;;;-0.20;99.90;;;;;;5054268;28;20025;-51
2021/12/23 03:50:49;;;;;;;44.85;21.30;;;-0.20;99.90;;;;;;5053977;28;20044;-52
2021/12/23 03:53:16;;;;;;;45.95;21.45;;;-0.10;99.90;;;;;;5054189;28;20424;-52
2021/12/23 03:55:41;;;;;;;45.00;20.92;;;-0.20;99.90;;;;;;5053910;28;20083;-52
2021/12/23 03:58:07;;;;;;;38.97;19.45;;;-0.10;99.90;;;;;;5054500;28;20025;-51
2021/12/23 04:00:33;;;;;;;37.65;20.08;;;-0.20;99.90;;;;;;5053886;28;20064;-52
2021/12/23 04:02:59;;;;;;;44.17;20.33;;;-0.20;99.90;;;;;;5035621;28;20035;-52
2021/12/23 04:05:25;;;;;;;43.95;19.25;;;-0.20;99.90;;;;;;5053919;28;20029;-50
2021/12/23 04:07:51;;;;;;;42.17;20.50;;;-0.20;99.90;;;;;;5053642;28;20056;-51
2021/12/23 04:10:23;;;;;;;42.88;20.58;;;-0.20;99.90;;;;;;5069344;22;20052;-54
2021/12/23 04:12:50;;;;;;;46.00;21.42;;;-0.20;99.90;;;;;;5074518;28;20401;-51
2021/12/23 04:15:16;;;;;;;41.58;21.80;;;-0.20;99.90;;;;;;5074381;28;20016;-52
2021/12/23 04:17:41;;;;;;;40.55;20.50;;;-0.20;99.90;;;;;;5074406;28;20031;-53
2021/12/23 04:20:22;;;;;;;41.58;20.80;;;-0.10;99.90;;;;;;5074907;28;20095;-54
2021/12/23 04:22:49;;;;;;;;;;;-0.20;99.90;;;;;;5074868;28;20025;-51
2021/12/23 04:25:17;;;;;;;41.72;19.20;;;-0.10;99.90;;;;;;5074160;28;19912;-53
2021/12/23 04:27:45;;;;;;;41.20;20.45;;;-0.10;99.90;;;;;;5074045;28;20069;-53
2021/12/23 04:30:11;;;;;;;38.53;20.23;;;-0.10;99.90;;;;;;5074052;28;20024;-51
2021/12/23 04:32:38;;;;;;;44.55;21.17;;;-0.10;99.90;;;;;;5055988;28;20481;-50
2021/12/23 04:35:05;;;;;;;43.60;20.05;;;-0.10;99.90;;;;;;5074743;28;20029;-52
2021/12/23 04:37:30;;;;;;;37.70;19.38;;;0.00;99.90;;;;;;5073700;28;20401;-56
2021/12/23 04:39:56;;;;;;;43.92;20.58;;;0.10;99.90;;;;;;5074328;28;20035;-50
2021/12/23 04:42:22;;;;;;;40.22;20.15;;;0.10;99.90;;;;;;5073730;28;20051;-50
2021/12/23 04:44:48;;;;;;;42.35;20.92;;;0.00;99.90;;;;;;5073753;28;20531;-51
2021/12/23 04:47:14;;;;;;;39.88;19.73;;;0.10;99.90;;;;;;5073739;28;20049;-52
2021/12/23 04:49:39;;;;;;;42.72;20.00;;;0.00;99.90;;;;;;5073452;28;20508;-52
2021/12/23 04:52:06;;;;;;;35.92;18.27;;;0.00;99.90;;;;;;5073654;28;20067;-52
2021/12/23 04:54:31;;;;;;;45.90;21.48;;;0.00;99.90;;;;;;5073704;28;20028;-50
2021/12/23 04:56:57;;;;;;;44.95;21.33;;;0.10;99.90;;;;;;5073317;28;20085;-50
2021/12/23 04:59:22;;;;;;;43.38;21.02;;;0.00;99.90;;;;;;5073214;28;20060;-49
2021/12/23 05:01:49;;;;;;;40.00;19.88;;;0.10;99.90;;;;;;5073248;28;20040;-50
2021/12/23 05:04:15;;;;;;;43.45;20.02;;;0.10;99.90;;;;;;5073650;28;20031;-50
2021/12/23 05:06:41;;;;;;;44.65;21.98;;;0.00;99.90;;;;;;5074274;28;20083;-50
2021/12/23 05:09:07;;;;;;;40.15;20.10;;;0.00;99.90;;;;;;5073699;28;20025;-49
2021/12/23 05:11:32;;;;;;;37.30;18.85;;;0.10;99.90;;;;;;5073120;28;20036;-54
2021/12/23 05:13:58;;;;;;;39.13;20.10;;;0.10;99.90;;;;;;5073374;28;20029;-50
2021/12/23 05:16:23;;;;;;;43.15;19.92;;;0.10;99.90;;;;;;5073097;28;20108;-53
2021/12/23 05:18:49;;;;;;;43.25;19.45;;;0.10;99.90;;;;;;5073186;28;20056;-53
2021/12/23 05:21:14;;;;;;;40.85;20.73;;;0.10;99.90;;;;;;5073366;28;20024;-52
2021/12/23 05:23:40;;;;;;;40.97;20.75;;;0.10;99.90;;;;;;5073222;28;20085;-49
2021/12/23 05:26:07;;;;;;;38.63;19.88;;;0.10;99.90;;;;;;5073155;28;20103;-50
2021/12/23 05:28:33;;;;;;;43.10;20.75;;;0.10;99.90;;;;;;5072883;28;20481;-50
2021/12/23 05:30:59;;;;;;;43.95;20.27;;;0.10;99.90;;;;;;5072956;28;20120;-51
2021/12/23 05:33:25;;;;;;;41.13;20.02;;;0.10;99.90;;;;;;5073059;28;20021;-54
2021/12/23 05:35:51;;;;;;;43.30;19.77;;;0.00;99.90;;;;;;5073036;28;20036;-51
2021/12/23 05:38:16;;;;;;;46.13;21.15;;;-0.10;99.90;;;;;;5073188;28;20031;-50
2021/12/23 05:40:42;;;;;;;44.90;21.23;;;0.00;99.90;;;;;;5072888;28;20056;-50
2021/12/23 05:43:08;;;;;;;41.75;21.80;;;0.00;99.90;;;;;;5072815;28;20111;-50
2021/12/23 05:45:33;;;;;;;38.75;19.98;;;0.00;99.90;;;;;;5073358;28;20024;-50
2021/12/23 05:47:59;;;;;;;42.70;21.52;;;0.10;99.90;;;;;;5072930;28;20028;-51
2021/12/23 05:50:25;;;;;;;42.40;19.42;;;0.10;99.90;;;;;;5072963;28;20020;-54
2021/12/23 05:52:52;;;;;;;39.05;19.08;;;0.10;99.90;;;;;;5072995;28;20054;-51
2021/12/23 05:55:18;;;;;;;39.30;19.48;;;0.00;99.90;;;;;;5072907;28;20035;-52
2021/12/23 05:57:44;;;;;;;40.00;20.27;;;0.00;99.90;;;;;;5072919;28;20029;-52
2021/12/23 06:00:22;;;;;;;43.00;20.58;;;0.10;99.90;;;;;;5072615;28;20032;-51
2021/12/23 06:02:48;;;;;;;39.15;19.92;;;0.00;99.90;;;;;;5072621;28;20020;-50
2021/12/23 06:05:15;;;;;;;42.53;20.83;;;0.00;99.90;;;;;;5072780;28;20443;-50
2021/12/23 06:07:41;;;;;;;41.08;20.67;;;0.00;99.90;;;;;;5073131;28;20024;-50
2021/12/23 06:10:08;;;;;;;43.00;20.20;;;0.00;99.90;;;;;;5076436;28;20035;-52
2021/12/23 06:12:33;;;;;;;42.97;20.48;;;0.00;99.90;;;;;;5076626;28;20017;-51
2021/12/23 06:14:59;;;;;;;42.08;20.40;;;0.10;99.90;;;;;;5076251;28;20565;-52
2021/12/23 06:17:25;;;;;;;42.53;21.67;;;0.10;99.90;;;;;;5076315;28;20315;-50
2021/12/23 06:19:50;;;;;;;42.97;21.40;;;0.00;99.90;;;;;;5076433;28;20033;-51
2021/12/23 06:22:18;;;;;;;42.03;21.50;;;0.00;99.90;;;;;;5076277;28;20031;-53
2021/12/23 06:24:46;;;;;;;44.08;21.25;;;0.00;99.90;;;;;;5076088;28;20516;-50
2021/12/23 06:27:12;;;;;;;43.65;20.92;;;0.00;99.90;;;;;;5076396;28;20029;-50
2021/12/23 06:29:38;;;;;;;40.55;21.27;;;0.10;99.90;;;;;;5076431;28;20020;-52
2021/12/23 06:32:04;;;;;;;39.47;20.65;;;0.20;99.90;;;;;;5076226;28;20580;-49
2021/12/23 06:34:30;;;;;;;44.83;21.88;;;0.20;99.90;;;;;;5076054;28;20025;-51
2021/12/23 06:36:55;;;;;;;37.25;21.00;;;0.20;99.90;;;;;;5076025;28;20050;-50
2021/12/23 06:39:21;;;;;;;43.72;20.75;;;0.20;99.90;;;;;;5075686;28;20503;-50
2021/12/23 06:41:46;;;;;;;40.00;20.75;;;0.20;99.90;;;;;;5075749;28;20037;-49
2021/12/23 06:44:12;;;;;;;46.55;21.70;;;0.30;99.90;;;;;;5075571;28;20500;-50
2021/12/23 06:46:38;;;;;;;48.97;23.25;;;0.30;99.90;;;;;;5075748;28;20389;-51
2021/12/23 06:49:03;;;;;;;46.67;22.88;;;0.30;99.90;;;;;;5075699;28;20461;-50
2021/12/23 06:51:30;;;;;;;47.85;22.75;;;0.40;99.90;;;;;;5075591;28;20070;-49
2021/12/23 06:53:57;;;;;;;50.97;23.60;;;0.30;99.90;;;;;;5075842;28;20473;-51
2021/12/23 06:56:24;;;;;;;45.88;22.88;;;0.30;99.90;;;;;;5075601;28;20075;-49
2021/12/23 06:58:50;;;;;;;43.95;23.52;;;0.30;99.90;;;;;;5075408;28;20028;-51
2021/12/23 07:01:18;;;;;;;46.53;23.00;;;0.30;99.90;;;;;;5075487;28;20030;-52
2021/12/23 07:04:07;;;;;;;51.53;26.40;;;0.30;99.90;;;;;;5075481;28;20050;-51
2021/12/23 07:06:35;;;;;;;44.30;23.45;;;0.30;99.90;;;;;;5075820;28;20032;-51
2021/12/23 07:09:05;;;;;;;41.05;20.60;;;0.30;99.90;;;;;;5075797;28;20024;-50
2021/12/23 07:11:32;;;;;;;48.38;23.23;;;0.30;99.90;;;;;;5075458;28;20404;-50
2021/12/23 07:13:57;;;;;;;40.58;21.55;;;0.30;99.90;;;;;;5075385;28;20074;-50
2021/12/23 07:16:23;;;;;;;36.53;21.13;;;0.40;99.90;;;;;;5075769;28;20033;-51
2021/12/23 07:18:48;;;;;;;46.67;22.80;;;0.40;99.90;;;;;;5074648;28;20081;-51
2021/12/23 07:21:14;;;;;;;45.85;23.55;;;0.40;99.90;;;;;;5074577;28;20031;-50
2021/12/23 07:23:40;;;;;;;45.25;22.05;;;0.30;99.90;;;;;;5075775;28;20040;-50
2021/12/23 07:26:05;;;;;;;51.72;24.73;;;0.40;99.90;;;;;;5075701;28;20026;-50
2021/12/23 07:28:31;;;;;;;46.53;23.23;;;0.40;99.90;;;;;;5075044;28;20108;-50
2021/12/23 07:30:56;;;;;;;41.90;21.52;;;0.40;99.90;;;;;;5075291;28;20059;-50
2021/12/23 07:33:22;;;;;;;50.50;21.95;;;0.40;99.90;;;;;;5074964;28;20031;-50
2021/12/23 07:35:48;;;;;;;44.05;22.17;;;0.40;99.90;;;;;;5075276;28;20029;-50
2021/12/23 07:38:14;;;;;;;41.83;22.20;;;0.40;99.90;;;;;;5075055;28;20024;-50
2021/12/23 07:40:41;;;;;;;42.25;22.63;;;0.50;99.90;;;;;;5074704;28;20033;-52
2021/12/23 07:43:21;;;;;;;47.78;22.20;;;0.40;99.90;;;;;;5074994;28;20033;-50
2021/12/23 07:45:47;;;;;;;47.72;21.65;;;0.40;99.90;;;;;;5074754;28;20033;-53
2021/12/23 07:48:12;;;;;;;40.53;21.27;;;0.50;99.90;;;;;;5075824;28;20474;-49
2021/12/23 07:50:41;;;;;;;41.15;21.73;;;0.40;99.90;;;;;;5075931;28;20035;-56
2021/12/23 07:53:06;;;;;;;44.40;22.00;;;0.40;99.90;;;;;;5075723;28;20381;-49
2021/12/23 07:55:32;;;;;;;46.80;23.05;;;0.40;99.90;;;;;;5075749;28;20024;-52
2021/12/23 07:57:57;;;;;;;48.20;23.13;;;0.40;99.90;;;;;;5074833;28;20036;-51
2021/12/23 08:00:23;;;;;;;43.38;22.35;;;0.50;99.90;;;;;;5075008;28;20024;-50
2021/12/23 08:02:48;;;;;;;43.63;22.90;;;0.50;99.90;;;;;;5074870;28;20115;-51
2021/12/23 08:05:14;;;;;;;46.67;22.77;;;0.50;99.90;;;;;;5075416;28;20033;-51
2021/12/23 08:07:40;;;;;;;45.90;22.67;;;0.50;99.90;;;;;;5075562;28;20028;-53
2021/12/23 08:10:06;;;;;;;45.63;23.10;;;0.50;99.90;;;;;;5074948;28;20090;-53
2021/12/23 08:12:32;;;;;;;41.95;22.65;;;0.60;99.90;;;;;;5075194;28;20077;-51
2021/12/23 08:14:57;;;;;;;43.35;23.35;;;0.70;99.90;;;;;;5075003;28;20028;-51
2021/12/23 08:17:23;;;;;;;41.58;21.55;;;0.70;99.90;;;;;;5074897;28;20024;-50
2021/12/23 08:19:48;;;;;;;45.80;22.42;;;0.60;99.90;;;;;;5074819;28;20111;-49
2021/12/23 08:22:14;;;;;;;40.88;21.70;;;0.70;99.90;;;;;;5074723;28;20435;-52
2021/12/23 08:24:39;;;;;;;39.10;21.80;;;0.70;99.90;;;;;;5074402;28;20024;-50
2021/12/23 08:27:07;;;;;;;42.28;21.42;;;0.70;99.90;;;;;;5073930;28;20108;-52
2021/12/23 08:29:33;;;;;;;44.33;22.58;;;0.80;99.90;;;;;;5074586;28;20051;-50
2021/12/23 08:31:58;;;;;;;42.10;20.98;;;0.80;99.90;;;;;;5055651;28;20017;-51
2021/12/23 08:34:25;;;;;;;42.75;21.80;;;0.80;99.90;;;;;;5056005;28;20500;-50
2021/12/23 08:36:52;;;;;;;48.00;21.67;;;0.80;99.90;;;;;;5055895;28;20035;-50
2021/12/23 08:39:17;;;;;;;46.80;22.92;;;0.80;99.90;;;;;;5074224;28;20031;-50
2021/12/23 08:41:44;;;;;;;42.58;22.13;;;0.90;99.90;;;;;;5073640;28;20385;-49
2021/12/23 08:44:09;;;;;;;42.50;22.27;;;1.00;99.90;;;;;;5073817;28;20021;-48
2021/12/23 08:46:35;;;;;;;44.47;21.92;;;1.00;99.90;;;;;;5073797;28;20025;-50
2021/12/23 08:49:01;;;;;;;51.97;25.17;;;1.10;99.90;;;;;;5073678;28;20028;-52
2021/12/23 08:51:27;;;;;;;47.92;23.45;;;1.10;99.90;;;;;;5073670;28;20066;-51
2021/12/23 08:53:52;;;;;;;50.90;24.55;;;1.00;99.90;;;;;;5073512;28;20094;-54
2021/12/23 08:56:18;;;;;;;43.45;22.45;;;1.00;99.90;;;;;;5073375;28;20036;-52
2021/12/23 08:58:43;;;;;;;48.60;23.08;;;1.10;99.90;;;;;;5074212;28;20081;-54
2021/12/23 09:01:11;;;;;;;45.13;22.98;;;1.10;99.90;;;;;;5074024;28;20024;-50
2021/12/23 09:03:36;;;;;;;47.03;23.75;;;1.10;99.90;;;;;;5073696;28;20031;-50
2021/12/23 09:06:03;;;;;;;39.78;21.73;;;1.10;99.90;;;;;;5072591;28;20029;-50
2021/12/23 09:08:29;;;;;;;38.17;21.10;;;1.10;99.90;;;;;;5073633;28;20377;-52
2021/12/23 09:10:56;;;;;;;42.67;22.55;;;1.00;99.90;;;;;;5073504;28;20039;-52
2021/12/23 09:13:22;;;;;;;41.83;22.55;;;1.00;99.90;;;;;;5073295;28;20025;-49
2021/12/23 09:15:49;;;;;;;41.92;21.83;;;1.00;99.90;;;;;;5072882;28;20501;-53
2021/12/23 09:18:14;;;;;;;44.83;21.60;;;1.00;99.90;;;;;;5072624;28;20033;-49
2021/12/23 09:20:40;;;;;;;41.97;22.25;;;1.00;99.90;;;;;;5071647;28;20047;-53
2021/12/23 09:23:09;;;;;;;41.08;21.92;;;1.00;99.90;;;;;;5072025;28;20070;-52
2021/12/23 09:25:35;;;;;;;46.15;21.70;;;1.00;99.90;;;;;;5073032;28;20056;-50
2021/12/23 09:28:12;;;;;;;46.38;22.40;;;1.10;99.90;;;;;;5072805;28;20103;-49
2021/12/23 09:33:24;;;;;;;41.20;21.67;;;1.00;99.90;;;;;;5073880;28;20035;-51
2021/12/23 09:35:50;;;;;;;44.65;23.23;;;1.00;99.90;;;;;;5073602;28;20103;-50
2021/12/23 09:38:17;;;;;;;42.20;21.13;;;1.10;99.90;;;;;;5073600;28;20063;-53
2021/12/23 09:40:43;;;;;;;45.83;22.25;;;1.10;99.90;;;;;;5073312;28;20032;-52
2021/12/23 09:43:13;;;;;;;41.72;21.58;;;1.10;99.90;;;;;;5072866;28;20107;-51
2021/12/23 09:45:41;;;;;;;41.85;22.80;;;1.10;99.90;;;;;;5072835;28;20035;-53
2021/12/23 09:48:07;;;;;;;40.03;21.55;;;1.20;99.90;;;;;;5073514;28;20020;-50
2021/12/23 09:50:37;;;;;;;43.53;22.88;;;1.20;99.90;;;;;;5073425;28;20024;-51
2021/12/23 09:53:04;;;;;;;49.13;23.15;;;1.30;99.90;;;;;;5073055;28;20027;-49
2021/12/23 09:55:30;;;;;;;41.72;22.38;;;1.30;99.90;;;;;;5073184;28;20028;-50
2021/12/23 09:58:00;;;;;;;44.20;22.60;;;1.30;99.90;;;;;;5073440;28;20466;-50
2021/12/23 10:00:35;;;;;;;42.53;21.15;;;1.40;99.90;;;;;;5073321;28;20111;-50
2021/12/23 10:03:01;;;;;;;41.88;21.55;;;1.40;99.90;;;;;;5073046;28;20416;-49
2021/12/23 10:05:29;;;;;;;42.90;22.42;;;1.40;99.90;;;;;;5072641;28;20028;-50
2021/12/23 10:07:56;;;;;;;44.05;23.02;;;1.40;99.90;;;;;;5073175;28;20070;-50
2021/12/23 10:10:30;;;;;;;48.53;24.75;;;1.40;99.90;;;;;;5096488;22;20031;-68
2021/12/23 10:13:13;;;;;;;46.80;22.45;;;1.40;99.90;;;;;;5076494;28;20029;-71
2021/12/23 10:38:17;;;;;;;36.42;20.42;;;1.50;99.90;;;;;;5073141;28;20047;-70
2021/12/23 10:40:46;;;;;;;45.60;23.20;;;1.50;99.90;;;;;;5074491;28;20044;-72
2021/12/23 10:43:29;;;;;;;40.97;21.77;;;1.50;99.90;;;;;;5074133;28;20040;-70
2021/12/23 10:46:00;;;;;;;42.95;21.85;;;1.50;99.90;;;;;;5073098;28;20533;-69
2021/12/23 10:48:27;;;;;;;;;;;1.60;99.90;;;;;;5074348;28;20017;-70
2021/12/23 10:51:05;;;;;;;38.80;20.65;;;1.60;99.90;;;;;;5073644;28;19950;-70
2021/12/23 10:59:10;;;;;;;45.20;23.60;;;1.60;99.90;;;;;;5076170;28;20059;-70
2021/12/23 11:02:18;;;;;;;41.10;21.90;;;1.70;99.90;;;;;;5058300;28;20024;-72
2021/12/23 11:05:07;;;;;;;44.47;20.85;;;1.70;99.90;;;;;;5076024;28;20025;-70
2021/12/23 11:07:54;;;;;;;42.17;21.92;;;1.70;99.90;;;;;;5076165;28;20062;-71
2021/12/23 11:11:26;;;;;;;39.97;20.98;;;1.80;99.90;;;;;;5075981;28;20020;-70
2021/12/23 11:38:23;;;;;;;47.45;21.48;;;1.90;99.90;;;;;;5075337;28;20138;-70
2021/12/23 11:40:53;;;;;;;42.38;21.33;;;1.90;99.90;;;;;;5074950;28;20128;-70
2021/12/23 11:43:30;;;;;;;41.50;22.00;;;1.90;99.90;;;;;;5075590;28;20047;-70
2021/12/23 11:45:56;;;;;;;48.50;23.10;;;1.90;99.90;;;;;;5075287;28;20028;-70
2021/12/23 11:48:22;;;;;;;45.65;23.77;;;1.90;99.90;;;;;;5074350;28;20020;-71
2021/12/23 11:51:01;;;;;;;46.13;22.25;;;1.90;99.90;;;;;;5074641;28;20021;-68
2021/12/23 11:53:27;;;;;;;46.30;22.25;;;2.00;99.90;;;;;;5074442;28;20377;-71
2021/12/23 11:55:54;;;;;;;48.83;24.90;;;1.90;99.90;;;;;;5074436;28;20304;-68
2021/12/23 11:58:25;;;;;;;45.33;22.88;;;1.90;99.90;;;;;;5074332;28;20038;-68
2021/12/23 12:01:06;;;;;;;48.72;24.13;;;2.00;99.90;;;;;;5074070;28;20025;-68
2021/12/23 12:03:51;;;;;;;45.13;22.75;;;2.00;99.90;;;;;;5074314;28;20335;-71
2021/12/23 12:06:19;;;;;;;48.78;23.23;;;2.00;99.90;;;;;;5075679;28;20067;-68
2021/12/23 12:08:46;;;;;;;47.92;24.55;;;2.00;99.90;;;;;;5073845;28;20481;-69
2021/12/23 12:11:25;;;;;;;56.33;24.75;;;2.00;99.90;;;;;;5073687;28;20032;-68
2021/12/23 12:13:51;;;;;;;49.20;25.08;;;1.90;99.90;;;;;;5074071;28;20025;-70
2021/12/23 12:16:35;;;;;;;47.70;24.85;;;2.00;99.90;;;;;;5073960;28;20027;-69
2021/12/23 12:19:02;;;;;;;44.80;23.58;;;1.90;99.90;;;;;;5074230;28;20031;-70
2021/12/23 12:21:33;;;;;;;51.03;24.60;;;1.90;99.90;;;;;;5074532;28;20016;-70
2021/12/23 12:24:16;;;;;;;50.08;25.15;;;1.90;99.90;;;;;;5074324;28;20027;-70
2021/12/23 12:26:58;;;;;;;50.00;24.40;;;2.00;99.90;;;;;;5074662;28;20048;-70
2021/12/23 12:29:36;;;;;;;48.63;26.48;;;1.90;99.90;;;;;;5074149;28;20016;-70
2021/12/23 12:32:02;;;;;;;48.80;24.83;;;2.00;99.90;;;;;;5073712;28;20374;-70
2021/12/23 12:34:34;;;;;;;51.53;25.45;;;2.00;99.90;;;;;;5073925;28;20052;-70
2021/12/23 12:37:01;;;;;;;49.03;25.23;;;1.90;99.90;;;;;;5073717;28;20090;-70
2021/12/23 12:39:40;;;;;;;54.17;27.10;;;1.90;99.90;;;;;;5071592;28;20032;-69
2021/12/23 12:42:10;;;;;;;66.15;28.63;;;1.90;99.90;;;;;;5073629;28;20497;-71
2021/12/23 12:44:50;;;;;;;55.08;26.75;;;1.90;99.90;;;;;;5073453;28;20025;-72
2021/12/23 12:47:30;;;;;;;61.42;27.17;;;1.90;99.90;;;;;;5073243;28;20055;-71
2021/12/23 12:50:08;;;;;;;52.53;25.95;;;1.90;99.90;;;;;;5073741;28;20017;-70
2021/12/23 12:52:38;;;;;;;56.17;26.10;;;1.90;99.90;;;;;;5073765;28;20124;-69
2021/12/23 12:55:06;;;;;;;64.47;28.08;;;1.90;99.90;;;;;;5073533;28;20031;-71
2021/12/23 12:57:53;;;;;;;59.55;28.10;;;1.80;99.90;;;;;;5073660;28;20024;-71
2021/12/23 13:00:35;;;;;;;57.75;26.48;;;1.80;99.90;;;;;;5073765;28;20142;-71
2021/12/23 13:03:07;;;;;;;54.40;25.42;;;1.80;99.90;;;;;;5076713;28;20028;-71
2021/12/23 13:05:42;;;;;;;53.10;27.27;;;1.70;99.90;;;;;;5084088;28;20135;-72
2021/12/23 13:08:24;;;;;;;65.60;28.73;;;1.70;99.90;;;;;;5076712;28;20389;-71
2021/12/23 13:10:50;;;;;;;59.92;28.08;;;1.70;99.90;;;;;;5073888;28;20031;-70
2021/12/23 13:13:31;;;;;;;55.08;28.45;;;1.70;99.90;;;;;;5073533;28;20104;-71
2021/12/23 13:16:00;;;;;;;60.35;28.27;;;1.70;99.90;;;;;;5073603;28;20024;-71
2021/12/23 13:18:26;;;;;;;61.25;29.67;;;1.70;99.90;;;;;;5072227;28;20195;-68
2021/12/23 13:20:57;;;;;;;62.63;29.00;;;1.60;99.90;;;;;;5072835;28;20083;-70
2021/12/23 13:23:40;;;;;;;61.42;29.02;;;1.60;99.90;;;;;;5073003;28;20069;-71
2021/12/23 13:26:15;;;;;;;65.20;29.20;;;1.60;99.90;;;;;;5073502;28;20090;-71
2021/12/23 13:28:47;;;;;;;63.00;28.23;;;1.60;99.90;;;;;;5079006;28;20020;-70
2021/12/23 13:31:19;;;;;;;68.82;30.40;;;1.60;99.90;;;;;;5070804;28;20017;-72
2021/12/23 13:33:49;;;;;;;68.45;30.77;;;1.50;99.90;;;;;;5073370;28;20052;-71
2021/12/23 13:36:25;;;;;;;70.30;30.58;;;1.50;99.90;;;;;;5073015;28;20104;-71
2021/12/23 13:38:53;;;;;;;64.07;29.65;;;1.70;99.90;;;;;;5074037;28;20024;-71
2021/12/23 13:41:25;;;;;;;62.95;31.02;;;1.60;99.90;;;;;;5073795;28;20024;-71